sensor_id;sensor_type;location;lat;lon;timestamp;temperature;humidity
34873;DHT22;21084;51.098;14.506;2023-02-28T01:12:17;-1.90;99.90
34873;DHT22;21084;51.098;14.506;2023-02-28T01:15:17;-2.10;99.90
34873;DHT22;21084;51.098;14.506;2023-02-28T01:18:07;-2.20;99.90
34873;DHT22;21084;51.098;14.506;2023-02-28T01:20:37;-2.30;99.90
34873;DHT22;21084;51.098;14.506;2023-02-28T01:23:07;-2.30;99.90
34873;DHT22;21084;51.098;14.506;2023-02-28T01:25:38;-2.40;99.90
34873;DHT22;21084;51.098;14.506;2023-02-28T01:28:09;-2.60;99.90
34873;DHT22;21084;51.098;14.506;2023-02-28T01:30:38;-2.70;99.90
34873;DHT22;21084;51.098;14.506;2023-02-28T01:33:07;-2.80;99.90
34873;DHT22;21084;51.098;14.506;2023-02-28T01:35:36;-2.80;99.90
34873;DHT22;21084;51.098;14.506;2023-02-28T01:38:05;-2.90;99.90
34873;DHT22;21084;51.098;14.506;2023-02-28T01:40:48;-2.90;99.90
34873;DHT22;21084;51.098;14.506;2023-02-28T01:43:22;-3.10;99.90
34873;DHT22;21084;51.098;14.506;2023-02-28T01:45:51;-3.20;99.90
34873;DHT22;21084;51.098;14.506;2023-02-28T01:48:24;-3.20;99.90
34873;DHT22;21084;51.098;14.506;2023-02-28T01:50:55;-3.30;99.90
34873;DHT22;21084;51.098;14.506;2023-02-28T01:53:31;-3.40;99.90
34873;DHT22;21084;51.098;14.506;2023-02-28T01:56:01;-3.50;99.90
34873;DHT22;21084;51.098;14.506;2023-02-28T01:58:33;-3.60;99.90
34873;DHT22;21084;51.098;14.506;2023-02-28T02:01:03;-3.60;99.90
34873;DHT22;21084;51.098;14.506;2023-02-28T02:03:32;-3.60;99.90
34873;DHT22;21084;51.098;14.506;2023-02-28T02:06:02;-3.70;99.90
34873;DHT22;21084;51.098;14.506;2023-02-28T02:08:30;-3.80;99.90
34873;DHT22;21084;51.098;14.506;2023-02-28T02:11:00;-3.80;99.90
34873;DHT22;21084;51.098;14.506;2023-02-28T02:13:40;-4.00;99.90
34873;DHT22;21084;51.098;14.506;2023-02-28T02:16:20;-4.00;99.90
34873;DHT22;21084;51.098;14.506;2023-02-28T02:18:52;-4.20;99.90
34873;DHT22;21084;51.098;14.506;2023-02-28T02:22:02;-4.30;99.90
34873;DHT22;21084;51.098;14.506;2023-02-28T02:28:01;-4.50;99.90
34873;DHT22;21084;51.098;14.506;2023-02-28T02:30:48;-4.50;99.90
34873;DHT22;21084;51.098;14.506;2023-02-28T02:33:39;-4.60;99.90
34873;DHT22;21084;51.098;14.506;2023-02-28T02:36:15;-4.70;99.90
34873;DHT22;21084;51.098;14.506;2023-02-28T02:38:50;-4.70;99.90
34873;DHT22;21084;51.098;14.506;2023-02-28T02:41:26;-4.80;99.90
34873;DHT22;21084;51.098;14.506;2023-02-28T02:44:02;-4.80;99.90
34873;DHT22;21084;51.098;14.506;2023-02-28T02:46:34;-4.80;99.90
34873;DHT22;21084;51.098;14.506;2023-02-28T02:49:06;-4.90;99.90
34873;DHT22;21084;51.098;14.506;2023-02-28T02:51:40;-4.90;99.90
34873;DHT22;21084;51.098;14.506;2023-02-28T02:54:13;-5.00;99.90
34873;DHT22;21084;51.098;14.506;2023-02-28T02:56:46;-5.00;99.90
34873;DHT22;21084;51.098;14.506;2023-02-28T02:59:17;-5.00;99.90
34873;DHT22;21084;51.098;14.506;2023-02-28T03:01:52;-5.00;99.90
34873;DHT22;21084;51.098;14.506;2023-02-28T03:04:24;-5.00;99.90
34873;DHT22;21084;51.098;14.506;2023-02-28T03:06:55;-4.90;99.90
34873;DHT22;21084;51.098;14.506;2023-02-28T03:09:25;-4.90;99.90
34873;DHT22;21084;51.098;14.506;2023-02-28T03:11:56;-4.90;99.90
34873;DHT22;21084;51.098;14.506;2023-02-28T03:14:40;-4.80;99.90
34873;DHT22;21084;51.098;14.506;2023-02-28T03:17:26;-4.80;99.90
34873;DHT22;21084;51.098;14.506;2023-02-28T03:20:07;-4.70;99.90
34873;DHT22;21084;51.098;14.506;2023-02-28T03:22:56;-4.70;99.90
34873;DHT22;21084;51.098;14.506;2023-02-28T03:25:33;-4.60;99.90
34873;DHT22;21084;51.098;14.506;2023-02-28T03:28:10;-4.60;99.90
34873;DHT22;21084;51.098;14.506;2023-02-28T03:30:46;-4.50;99.90
34873;DHT22;21084;51.098;14.506;2023-02-28T03:33:24;-4.50;99.90
34873;DHT22;21084;51.098;14.506;2023-02-28T03:35:56;-4.50;99.90
34873;DHT22;21084;51.098;14.506;2023-02-28T03:38:31;-4.40;99.90
34873;DHT22;21084;51.098;14.506;2023-02-28T03:41:06;-4.40;99.90
34873;DHT22;21084;51.098;14.506;2023-02-28T03:43:40;-4.30;99.90
34873;DHT22;21084;51.098;14.506;2023-02-28T03:46:13;-4.20;99.90
34873;DHT22;21084;51.098;14.506;2023-02-28T03:48:45;-4.20;99.90
34873;DHT22;21084;51.098;14.506;2023-02-28T03:51:19;-4.20;99.90
34873;DHT22;21084;51.098;14.506;2023-02-28T03:53:54;-4.10;99.90
34873;DHT22;21084;51.098;14.506;2023-02-28T03:56:29;-4.10;99.90
34873;DHT22;21084;51.098;14.506;2023-02-28T03:59:04;-4.10;99.90
34873;DHT22;21084;51.098;14.506;2023-02-28T04:01:36;-4.10;99.90
34873;DHT22;21084;51.098;14.506;2023-02-28T04:04:09;-4.10;99.90
34873;DHT22;21084;51.098;14.506;2023-02-28T04:06:38;-4.00;99.90
34873;DHT22;21084;51.098;14.506;2023-02-28T04:09:10;-4.00;99.90
34873;DHT22;21084;51.098;14.506;2023-02-28T04:11:39;-3.90;99.90
34873;DHT22;21084;51.098;14.506;2023-02-28T04:14:09;-3.90;99.90
34873;DHT22;21084;51.098;14.506;2023-02-28T04:16:40;-3.90;99.90
34873;DHT22;21084;51.098;14.506;2023-02-28T04:19:10;-4.00;99.90
34873;DHT22;21084;51.098;14.506;2023-02-28T04:21:41;-4.00;99.90
34873;DHT22;21084;51.098;14.506;2023-02-28T04:24:13;-3.90;99.90
34873;DHT22;21084;51.098;14.506;2023-02-28T04:26:43;-3.90;99.90
34873;DHT22;21084;51.098;14.506;2023-02-28T04:29:13;-3.90;99.90
34873;DHT22;21084;51.098;14.506;2023-02-28T04:31:42;-4.00;99.90
34873;DHT22;21084;51.098;14.506;2023-02-28T04:34:11;-3.90;99.90
34873;DHT22;21084;51.098;14.506;2023-02-28T04:36:39;-3.90;99.90
34873;DHT22;21084;51.098;14.506;2023-02-28T04:39:08;-3.90;99.90
34873;DHT22;21084;51.098;14.506;2023-02-28T04:41:39;-3.80;99.90
34873;DHT22;21084;51.098;14.506;2023-02-28T04:44:08;-3.80;99.90
34873;DHT22;21084;51.098;14.506;2023-02-28T04:46:36;-3.80;99.90
34873;DHT22;21084;51.098;14.506;2023-02-28T04:49:05;-3.70;99.90
34873;DHT22;21084;51.098;14.506;2023-02-28T04:51:33;-3.70;99.90
34873;DHT22;21084;51.098;14.506;2023-02-28T04:54:02;-3.70;99.90
34873;DHT22;21084;51.098;14.506;2023-02-28T04:56:30;-3.70;99.90
34873;DHT22;21084;51.098;14.506;2023-02-28T04:59:00;-3.60;99.90
34873;DHT22;21084;51.098;14.506;2023-02-28T05:01:30;-3.60;99.90
34873;DHT22;21084;51.098;14.506;2023-02-28T05:04:01;-3.60;99.90
34873;DHT22;21084;51.098;14.506;2023-02-28T05:06:32;-3.60;99.90
34873;DHT22;21084;51.098;14.506;2023-02-28T05:09:00;-3.60;99.90
34873;DHT22;21084;51.098;14.506;2023-02-28T05:11:31;-3.50;99.90
34873;DHT22;21084;51.098;14.506;2023-02-28T05:14:05;-3.50;99.90
34873;DHT22;21084;51.098;14.506;2023-02-28T05:16:34;-3.50;99.90
34873;DHT22;21084;51.098;14.506;2023-02-28T05:19:03;-3.50;99.90
34873;DHT22;21084;51.098;14.506;2023-02-28T05:21:33;-3.40;99.90
34873;DHT22;21084;51.098;14.506;2023-02-28T05:24:04;-3.40;99.90
34873;DHT22;21084;51.098;14.506;2023-02-28T05:26:34;-3.40;99.90
34873;DHT22;21084;51.098;14.506;2023-02-28T05:29:05;-3.30;99.90
34873;DHT22;21084;51.098;14.506;2023-02-28T05:31:33;-3.30;99.90
34873;DHT22;21084;51.098;14.506;2023-02-28T05:34:02;-3.30;99.90
34873;DHT22;21084;51.098;14.506;2023-02-28T05:36:32;-3.30;99.90
34873;DHT22;21084;51.098;14.506;2023-02-28T05:39:01;-3.30;99.90
34873;DHT22;21084;51.098;14.506;2023-02-28T05:41:30;-3.30;99.90
34873;DHT22;21084;51.098;14.506;2023-02-28T05:43:59;-3.30;99.90
34873;DHT22;21084;51.098;14.506;2023-02-28T05:46:29;-3.30;99.90
34873;DHT22;21084;51.098;14.506;2023-02-28T05:48:57;-3.30;99.90
34873;DHT22;21084;51.098;14.506;2023-02-28T05:51:27;-3.30;99.90
34873;DHT22;21084;51.098;14.506;2023-02-28T05:53:59;-3.40;99.90
34873;DHT22;21084;51.098;14.506;2023-02-28T05:56:28;-3.50;99.90
34873;DHT22;21084;51.098;14.506;2023-02-28T05:58:57;-3.50;99.90
34873;DHT22;21084;51.098;14.506;2023-02-28T06:01:34;-3.50;99.90
34873;DHT22;21084;51.098;14.506;2023-02-28T06:04:04;-3.60;99.90
34873;DHT22;21084;51.098;14.506;2023-02-28T06:06:34;-3.60;99.90
34873;DHT22;21084;51.098;14.506;2023-02-28T06:09:04;-3.60;99.90
34873;DHT22;21084;51.098;14.506;2023-02-28T06:11:33;-3.70;99.90
34873;DHT22;21084;51.098;14.506;2023-02-28T06:14:02;-3.80;99.90
34873;DHT22;21084;51.098;14.506;2023-02-28T06:16:33;-3.80;99.90
34873;DHT22;21084;51.098;14.506;2023-02-28T06:19:03;-3.80;99.90
34873;DHT22;21084;51.098;14.506;2023-02-28T06:21:32;-3.90;99.90
34873;DHT22;21084;51.098;14.506;2023-02-28T06:24:01;-3.90;99.90
34873;DHT22;21084;51.098;14.506;2023-02-28T06:26:30;-3.90;99.90
34873;DHT22;21084;51.098;14.506;2023-02-28T06:28:59;-3.90;99.90
34873;DHT22;21084;51.098;14.506;2023-02-28T06:31:28;-3.90;99.90
34873;DHT22;21084;51.098;14.506;2023-02-28T06:33:59;-3.90;99.90
34873;DHT22;21084;51.098;14.506;2023-02-28T06:36:27;-3.80;99.90
34873;DHT22;21084;51.098;14.506;2023-02-28T06:38:56;-3.80;99.90
34873;DHT22;21084;51.098;14.506;2023-02-28T06:41:26;-3.80;99.90
34873;DHT22;21084;51.098;14.506;2023-02-28T06:43:55;-3.70;99.90
34873;DHT22;21084;51.098;14.506;2023-02-28T06:46:24;-3.70;99.90
34873;DHT22;21084;51.098;14.506;2023-02-28T06:48:53;-3.60;99.90
34873;DHT22;21084;51.098;14.506;2023-02-28T06:51:23;-3.60;99.90
34873;DHT22;21084;51.098;14.506;2023-02-28T06:53:51;-3.50;99.90
34873;DHT22;21084;51.098;14.506;2023-02-28T06:56:20;-3.40;99.90
34873;DHT22;21084;51.098;14.506;2023-02-28T06:58:49;-3.30;99.90
34873;DHT22;21084;51.098;14.506;2023-02-28T07:01:19;-3.30;99.90
34873;DHT22;21084;51.098;14.506;2023-02-28T07:03:50;-3.10;99.90
34873;DHT22;21084;51.098;14.506;2023-02-28T07:06:20;-3.00;99.90
34873;DHT22;21084;51.098;14.506;2023-02-28T07:08:52;-2.90;99.90
34873;DHT22;21084;51.098;14.506;2023-02-28T07:11:22;-2.80;99.90
34873;DHT22;21084;51.098;14.506;2023-02-28T07:13:53;-2.70;99.90
34873;DHT22;21084;51.098;14.506;2023-02-28T07:16:24;-2.60;99.90
34873;DHT22;21084;51.098;14.506;2023-02-28T07:18:53;-2.50;99.90
34873;DHT22;21084;51.098;14.506;2023-02-28T07:21:22;-2.50;99.90
34873;DHT22;21084;51.098;14.506;2023-02-28T07:23:52;-2.30;99.90
34873;DHT22;21084;51.098;14.506;2023-02-28T07:26:21;-2.20;99.90
34873;DHT22;21084;51.098;14.506;2023-02-28T07:28:49;-2.20;99.90
34873;DHT22;21084;51.098;14.506;2023-02-28T07:31:18;-2.00;99.90
34873;DHT22;21084;51.098;14.506;2023-02-28T07:33:47;-2.10;99.90
34873;DHT22;21084;51.098;14.506;2023-02-28T07:36:17;-2.00;99.90
34873;DHT22;21084;51.098;14.506;2023-02-28T07:38:47;-1.80;99.90
34873;DHT22;21084;51.098;14.506;2023-02-28T07:41:20;-1.70;99.90
34873;DHT22;21084;51.098;14.506;2023-02-28T07:43:52;-1.50;99.90
34873;DHT22;21084;51.098;14.506;2023-02-28T07:46:21;-1.60;99.90
34873;DHT22;21084;51.098;14.506;2023-02-28T07:48:50;-1.60;99.90
34873;DHT22;21084;51.098;14.506;2023-02-28T07:51:22;-1.80;99.90
34873;DHT22;21084;51.098;14.506;2023-02-28T07:53:50;-1.70;99.90
34873;DHT22;21084;51.098;14.506;2023-02-28T07:56:20;-1.50;99.90
34873;DHT22;21084;51.098;14.506;2023-02-28T07:58:49;-1.40;99.90
34873;DHT22;21084;51.098;14.506;2023-02-28T08:01:18;-1.30;99.90
34873;DHT22;21084;51.098;14.506;2023-02-28T08:03:46;-1.10;99.90
34873;DHT22;21084;51.098;14.506;2023-02-28T08:06:17;-0.80;99.90
34873;DHT22;21084;51.098;14.506;2023-02-28T08:08:46;-0.60;99.90
34873;DHT22;21084;51.098;14.506;2023-02-28T08:11:16;-0.40;99.90
34873;DHT22;21084;51.098;14.506;2023-02-28T08:13:47;-0.30;99.90
34873;DHT22;21084;51.098;14.506;2023-02-28T08:16:15;-0.10;99.90
34873;DHT22;21084;51.098;14.506;2023-02-28T08:18:49;0.20;99.90
34873;DHT22;21084;51.098;14.506;2023-02-28T08:21:18;0.50;99.90
34873;DHT22;21084;51.098;14.506;2023-02-28T08:23:47;0.60;99.90
34873;DHT22;21084;51.098;14.506;2023-02-28T08:26:17;0.80;99.90
34873;DHT22;21084;51.098;14.506;2023-02-28T08:28:47;1.10;99.90
34873;DHT22;21084;51.098;14.506;2023-02-28T08:31:16;1.20;99.90
34873;DHT22;21084;51.098;14.506;2023-02-28T08:33:46;1.40;99.90
34873;DHT22;21084;51.098;14.506;2023-02-28T08:36:15;1.50;99.90
34873;DHT22;21084;51.098;14.506;2023-02-28T08:38:44;1.50;99.90
34873;DHT22;21084;51.098;14.506;2023-02-28T08:41:14;1.50;99.90
34873;DHT22;21084;51.098;14.506;2023-02-28T08:43:43;1.60;99.90
34873;DHT22;21084;51.098;14.506;2023-02-28T08:46:13;1.80;99.90
34873;DHT22;21084;51.098;14.506;2023-02-28T08:48:42;1.80;99.90
34873;DHT22;21084;51.098;14.506;2023-02-28T08:51:12;1.80;99.90
34873;DHT22;21084;51.098;14.506;2023-02-28T08:53:43;1.80;99.90
34873;DHT22;21084;51.098;14.506;2023-02-28T08:56:20;1.80;99.90
34873;DHT22;21084;51.098;14.506;2023-02-28T08:58:59;1.80;99.90
34873;DHT22;21084;51.098;14.506;2023-02-28T09:01:30;2.00;99.90
34873;DHT22;21084;51.098;14.506;2023-02-28T09:03:59;2.10;99.90
34873;DHT22;21084;51.098;14.506;2023-02-28T09:06:29;2.00;99.90
34873;DHT22;21084;51.098;14.506;2023-02-28T09:09:00;1.90;99.90
34873;DHT22;21084;51.098;14.506;2023-02-28T09:11:30;2.10;99.90
34873;DHT22;21084;51.098;14.506;2023-02-28T09:14:02;2.00;99.90
34873;DHT22;21084;51.098;14.506;2023-02-28T09:16:33;2.10;99.90
34873;DHT22;21084;51.098;14.506;2023-02-28T09:19:02;2.30;99.90
34873;DHT22;21084;51.098;14.506;2023-02-28T09:21:31;2.20;99.90
34873;DHT22;21084;51.098;14.506;2023-02-28T09:23:59;2.20;99.90
34873;DHT22;21084;51.098;14.506;2023-02-28T09:26:32;2.20;99.90
34873;DHT22;21084;51.098;14.506;2023-02-28T09:29:09;2.10;99.90
34873;DHT22;21084;51.098;14.506;2023-02-28T09:31:40;2.00;99.90
34873;DHT22;21084;51.098;14.506;2023-02-28T09:34:09;2.20;99.90
34873;DHT22;21084;51.098;14.506;2023-02-28T09:36:38;2.30;99.90
34873;DHT22;21084;51.098;14.506;2023-02-28T09:39:12;2.60;99.90
34873;DHT22;21084;51.098;14.506;2023-02-28T09:41:45;2.80;99.90
34873;DHT22;21084;51.098;14.506;2023-02-28T09:44:22;3.00;99.90
34873;DHT22;21084;51.098;14.506;2023-02-28T09:46:57;3.00;99.90
34873;DHT22;21084;51.098;14.506;2023-02-28T09:49:34;2.80;99.90
34873;DHT22;21084;51.098;14.506;2023-02-28T09:52:07;2.70;99.90
34873;DHT22;21084;51.098;14.506;2023-02-28T09:54:38;2.60;99.90
34873;DHT22;21084;51.098;14.506;2023-02-28T09:57:13;2.50;99.90
34873;DHT22;21084;51.098;14.506;2023-02-28T09:59:55;2.40;99.90
34873;DHT22;21084;51.098;14.506;2023-02-28T10:05:25;2.30;99.90
34873;DHT22;21084;51.098;14.506;2023-02-28T10:08:02;2.60;99.90
34873;DHT22;21084;51.098;14.506;2023-02-28T10:10:37;2.70;99.90
34873;DHT22;21084;51.098;14.506;2023-02-28T10:13:15;2.80;99.90
34873;DHT22;21084;51.098;14.506;2023-02-28T10:15:49;2.70;99.90
34873;DHT22;21084;51.098;14.506;2023-02-28T10:18:23;2.70;99.90
34873;DHT22;21084;51.098;14.506;2023-02-28T10:20:55;2.80;99.90
34873;DHT22;21084;51.098;14.506;2023-02-28T10:23:27;2.90;99.90
34873;DHT22;21084;51.098;14.506;2023-02-28T10:25:59;2.80;99.90
34873;DHT22;21084;51.098;14.506;2023-02-28T10:28:29;2.60;99.90
34873;DHT22;21084;51.098;14.506;2023-02-28T10:31:00;2.50;99.90
34873;DHT22;21084;51.098;14.506;2023-02-28T10:33:30;2.70;99.90
34873;DHT22;21084;51.098;14.506;2023-02-28T10:36:05;2.70;99.90
34873;DHT22;21084;51.098;14.506;2023-02-28T10:38:41;3.00;99.90
34873;DHT22;21084;51.098;14.506;2023-02-28T10:41:13;3.00;99.90
34873;DHT22;21084;51.098;14.506;2023-02-28T10:43:52;3.10;99.90
34873;DHT22;21084;51.098;14.506;2023-02-28T10:47:01;3.20;99.90
34873;DHT22;21084;51.098;14.506;2023-02-28T10:49:41;2.90;99.90
34873;DHT22;21084;51.098;14.506;2023-02-28T10:52:39;2.90;99.90
34873;DHT22;21084;51.098;14.506;2023-02-28T10:55:21;3.30;99.90
34873;DHT22;21084;51.098;14.506;2023-02-28T10:58:03;3.50;99.90
34873;DHT22;21084;51.098;14.506;2023-02-28T11:00:37;3.70;99.90
34873;DHT22;21084;51.098;14.506;2023-02-28T11:03:25;3.30;99.90
34873;DHT22;21084;51.098;14.506;2023-02-28T11:05:58;3.30;99.90
34873;DHT22;21084;51.098;14.506;2023-02-28T11:08:37;3.30;99.90
34873;DHT22;21084;51.098;14.506;2023-02-28T11:11:14;3.40;99.90
34873;DHT22;21084;51.098;14.506;2023-02-28T11:13:54;3.20;99.90
34873;DHT22;21084;51.098;14.506;2023-02-28T11:16:40;3.30;99.90
34873;DHT22;21084;51.098;14.506;2023-02-28T11:19:24;3.60;99.90
34873;DHT22;21084;51.098;14.506;2023-02-28T11:21:57;3.50;99.90
34873;DHT22;21084;51.098;14.506;2023-02-28T11:24:33;3.50;99.90
34873;DHT22;21084;51.098;14.506;2023-02-28T11:27:05;3.70;99.90
34873;DHT22;21084;51.098;14.506;2023-02-28T11:29:47;3.90;99.90
34873;DHT22;21084;51.098;14.506;2023-02-28T11:32:19;4.00;99.90
34873;DHT22;21084;51.098;14.506;2023-02-28T11:35:02;4.10;99.90
34873;DHT22;21084;51.098;14.506;2023-02-28T11:37:41;4.20;99.90
34873;DHT22;21084;51.098;14.506;2023-02-28T11:40:19;4.40;99.90
34873;DHT22;21084;51.098;14.506;2023-02-28T11:43:01;4.60;99.90
34873;DHT22;21084;51.098;14.506;2023-02-28T11:45:53;4.80;99.90
34873;DHT22;21084;51.098;14.506;2023-02-28T11:48:30;5.20;99.90
34873;DHT22;21084;51.098;14.506;2023-02-28T11:51:15;5.30;99.90
34873;DHT22;21084;51.098;14.506;2023-02-28T11:53:59;5.60;99.90
34873;DHT22;21084;51.098;14.506;2023-02-28T11:56:46;5.50;99.90
34873;DHT22;21084;51.098;14.506;2023-02-28T11:59:42;5.50;99.90
34873;DHT22;21084;51.098;14.506;2023-02-28T12:02:35;5.60;99.90
34873;DHT22;21084;51.098;14.506;2023-02-28T12:05:20;5.60;99.90
34873;DHT22;21084;51.098;14.506;2023-02-28T12:08:03;5.40;99.90
34873;DHT22;21084;51.098;14.506;2023-02-28T12:10:44;5.30;99.90
34873;DHT22;21084;51.098;14.506;2023-02-28T12:13:32;5.60;99.90
34873;DHT22;21084;51.098;14.506;2023-02-28T12:16:29;6.10;99.90
34873;DHT22;21084;51.098;14.506;2023-02-28T12:19:22;6.40;99.90
34873;DHT22;21084;51.098;14.506;2023-02-28T12:22:27;6.60;99.90
34873;DHT22;21084;51.098;14.506;2023-02-28T12:25:24;6.70;99.90
34873;DHT22;21084;51.098;14.506;2023-02-28T12:27:59;6.80;99.90
34873;DHT22;21084;51.098;14.506;2023-02-28T12:30:32;6.30;99.90
34873;DHT22;21084;51.098;14.506;2023-02-28T12:33:05;6.50;99.90
34873;DHT22;21084;51.098;14.506;2023-02-28T12:35:38;6.10;99.90
34873;DHT22;21084;51.098;14.506;2023-02-28T12:38:14;6.40;99.90
34873;DHT22;21084;51.098;14.506;2023-02-28T12:40:49;6.50;99.90
34873;DHT22;21084;51.098;14.506;2023-02-28T12:43:20;6.60;99.90
34873;DHT22;21084;51.098;14.506;2023-02-28T12:45:55;6.50;99.90
34873;DHT22;21084;51.098;14.506;2023-02-28T12:48:29;6.20;99.90
34873;DHT22;21084;51.098;14.506;2023-02-28T12:51:00;6.30;99.90
34873;DHT22;21084;51.098;14.506;2023-02-28T12:53:35;6.50;99.90
34873;DHT22;21084;51.098;14.506;2023-02-28T12:56:12;6.70;99.90
34873;DHT22;21084;51.098;14.506;2023-02-28T12:58:48;7.20;99.90
34873;DHT22;21084;51.098;14.506;2023-02-28T13:01:40;7.00;99.90
34873;DHT22;21084;51.098;14.506;2023-02-28T13:04:29;7.20;99.90
34873;DHT22;21084;51.098;14.506;2023-02-28T13:10:07;8.10;99.90
34873;DHT22;21084;51.098;14.506;2023-02-28T13:12:36;7.90;99.90
34873;DHT22;21084;51.098;14.506;2023-02-28T13:15:08;8.10;99.90
34873;DHT22;21084;51.098;14.506;2023-02-28T13:17:41;8.40;99.90
34873;DHT22;21084;51.098;14.506;2023-02-28T13:20:17;8.10;99.90
34873;DHT22;21084;51.098;14.506;2023-02-28T13:22:48;8.00;99.90
34873;DHT22;21084;51.098;14.506;2023-02-28T13:38:21;7.20;99.90
34873;DHT22;21084;51.098;14.506;2023-02-28T13:40:50;7.40;99.90
34873;DHT22;21084;51.098;14.506;2023-02-28T13:43:19;7.50;99.90
34873;DHT22;21084;51.098;14.506;2023-02-28T13:46:12;7.40;99.90
34873;DHT22;21084;51.098;14.506;2023-02-28T13:48:41;7.40;99.90
34873;DHT22;21084;51.098;14.506;2023-02-28T13:51:39;7.30;99.90
34873;DHT22;21084;51.098;14.506;2023-02-28T13:54:28;7.80;99.90
34873;DHT22;21084;51.098;14.506;2023-02-28T13:57:11;8.20;99.90
34873;DHT22;21084;51.098;14.506;2023-02-28T13:59:51;8.70;99.90
34873;DHT22;21084;51.098;14.506;2023-02-28T14:02:36;8.80;99.90
34873;DHT22;21084;51.098;14.506;2023-02-28T14:05:14;8.90;99.90
34873;DHT22;21084;51.098;14.506;2023-02-28T14:07:46;9.20;99.90
34873;DHT22;21084;51.098;14.506;2023-02-28T14:10:25;9.50;99.90
34873;DHT22;21084;51.098;14.506;2023-02-28T14:13:00;9.50;99.00
34873;DHT22;21084;51.098;14.506;2023-02-28T14:15:45;9.10;99.70
34873;DHT22;21084;51.098;14.506;2023-02-28T14:18:29;9.10;99.90
34873;DHT22;21084;51.098;14.506;2023-02-28T14:21:14;8.50;99.10
34873;DHT22;21084;51.098;14.506;2023-02-28T14:24:13;8.40;98.30
34873;DHT22;21084;51.098;14.506;2023-02-28T14:30:15;8.50;98.90
34873;DHT22;21084;51.098;14.506;2023-02-28T14:32:54;8.40;99.90
34873;DHT22;21084;51.098;14.506;2023-02-28T14:35:43;8.00;97.70
34873;DHT22;21084;51.098;14.506;2023-02-28T14:38:18;7.50;98.60
34873;DHT22;21084;51.098;14.506;2023-02-28T14:40:51;7.00;99.90
34873;DHT22;21084;51.098;14.506;2023-02-28T14:43:24;6.60;99.90
34873;DHT22;21084;51.098;14.506;2023-02-28T14:45:56;6.50;99.90
34873;DHT22;21084;51.098;14.506;2023-02-28T14:48:26;6.60;99.90
34873;DHT22;21084;51.098;14.506;2023-02-28T14:50:57;6.40;99.90
34873;DHT22;21084;51.098;14.506;2023-02-28T14:53:28;6.60;99.90
34873;DHT22;21084;51.098;14.506;2023-02-28T14:55:57;6.80;99.90
34873;DHT22;21084;51.098;14.506;2023-02-28T14:58:31;7.10;99.90
34873;DHT22;21084;51.098;14.506;2023-02-28T15:01:02;6.80;99.90
34873;DHT22;21084;51.098;14.506;2023-02-28T15:03:33;6.80;99.90
34873;DHT22;21084;51.098;14.506;2023-02-28T15:06:03;7.20;99.90
34873;DHT22;21084;51.098;14.506;2023-02-28T15:08:32;8.00;99.90
34873;DHT22;21084;51.098;14.506;2023-02-28T15:11:06;8.60;98.70
34873;DHT22;21084;51.098;14.506;2023-02-28T15:13:40;9.10;98.70
34873;DHT22;21084;51.098;14.506;2023-02-28T15:16:13;9.60;97.00
34873;DHT22;21084;51.098;14.506;2023-02-28T15:18:46;10.40;95.70
34873;DHT22;21084;51.098;14.506;2023-02-28T15:21:18;10.20;93.20
34873;DHT22;21084;51.098;14.506;2023-02-28T15:23:51;10.20;93.40
34873;DHT22;21084;51.098;14.506;2023-02-28T15:26:23;10.60;93.90
34873;DHT22;21084;51.098;14.506;2023-02-28T15:28:58;10.70;92.40
34873;DHT22;21084;51.098;14.506;2023-02-28T15:31:29;11.00;90.90
34873;DHT22;21084;51.098;14.506;2023-02-28T15:34:17;10.80;91.00
34873;DHT22;21084;51.098;14.506;2023-02-28T15:36:48;10.90;90.10
34873;DHT22;21084;51.098;14.506;2023-02-28T15:39:22;10.70;89.40
34873;DHT22;21084;51.098;14.506;2023-02-28T15:41:51;9.80;90.00
34873;DHT22;21084;51.098;14.506;2023-02-28T15:44:30;8.70;91.50
34873;DHT22;21084;51.098;14.506;2023-02-28T15:47:05;8.40;93.10
34873;DHT22;21084;51.098;14.506;2023-02-28T15:49:39;8.30;92.50
34873;DHT22;21084;51.098;14.506;2023-02-28T15:52:14;8.30;93.40
34873;DHT22;21084;51.098;14.506;2023-02-28T15:54:44;7.30;94.00
34873;DHT22;21084;51.098;14.506;2023-02-28T15:57:15;6.60;95.50
34873;DHT22;21084;51.098;14.506;2023-02-28T15:59:51;5.90;97.40
34873;DHT22;21084;51.098;14.506;2023-02-28T16:02:25;5.20;99.10
34873;DHT22;21084;51.098;14.506;2023-02-28T16:05:01;5.00;99.90
34873;DHT22;21084;51.098;14.506;2023-02-28T16:07:30;4.70;99.90
34873;DHT22;21084;51.098;14.506;2023-02-28T16:09:59;4.50;99.90
34873;DHT22;21084;51.098;14.506;2023-02-28T16:12:30;4.30;99.90
34873;DHT22;21084;51.098;14.506;2023-02-28T16:15:02;4.10;99.90
34873;DHT22;21084;51.098;14.506;2023-02-28T16:17:35;3.90;99.90
34873;DHT22;21084;51.098;14.506;2023-02-28T16:20:12;3.60;99.90
34873;DHT22;21084;51.098;14.506;2023-02-28T16:22:42;3.30;99.90
34873;DHT22;21084;51.098;14.506;2023-02-28T16:25:12;3.10;99.90
34873;DHT22;21084;51.098;14.506;2023-02-28T16:27:42;2.90;99.90
34873;DHT22;21084;51.098;14.506;2023-02-28T16:30:19;2.70;99.90
34873;DHT22;21084;51.098;14.506;2023-02-28T16:32:49;2.40;99.90
34873;DHT22;21084;51.098;14.506;2023-02-28T16:35:19;2.20;99.90
34873;DHT22;21084;51.098;14.506;2023-02-28T16:37:48;2.00;99.90
34873;DHT22;21084;51.098;14.506;2023-02-28T16:40:20;1.90;99.90
34873;DHT22;21084;51.098;14.506;2023-02-28T16:42:52;1.60;99.90
34873;DHT22;21084;51.098;14.506;2023-02-28T16:45:24;1.50;99.90
34873;DHT22;21084;51.098;14.506;2023-02-28T16:47:54;1.40;99.90
34873;DHT22;21084;51.098;14.506;2023-02-28T16:50:25;1.30;99.90
34873;DHT22;21084;51.098;14.506;2023-02-28T16:52:53;1.10;99.90
34873;DHT22;21084;51.098;14.506;2023-02-28T16:55:23;1.00;99.90
34873;DHT22;21084;51.098;14.506;2023-02-28T16:57:53;0.90;99.90
34873;DHT22;21084;51.098;14.506;2023-02-28T17:00:26;0.80;99.90
34873;DHT22;21084;51.098;14.506;2023-02-28T17:02:55;0.80;99.90
34873;DHT22;21084;51.098;14.506;2023-02-28T17:05:25;0.70;99.90
34873;DHT22;21084;51.098;14.506;2023-02-28T17:07:54;0.60;99.90
34873;DHT22;21084;51.098;14.506;2023-02-28T17:10:25;0.50;99.90
34873;DHT22;21084;51.098;14.506;2023-02-28T17:12:54;0.30;99.90
34873;DHT22;21084;51.098;14.506;2023-02-28T17:15:37;0.30;99.90
34873;DHT22;21084;51.098;14.506;2023-02-28T17:18:08;0.20;99.90
34873;DHT22;21084;51.098;14.506;2023-02-28T17:20:41;0.10;99.90
34873;DHT22;21084;51.098;14.506;2023-02-28T17:23:10;0.00;99.90
34873;DHT22;21084;51.098;14.506;2023-02-28T17:25:39;-0.10;99.90
34873;DHT22;21084;51.098;14.506;2023-02-28T17:28:08;-0.10;99.90
34873;DHT22;21084;51.098;14.506;2023-02-28T17:30:38;-0.20;99.90
34873;DHT22;21084;51.098;14.506;2023-02-28T17:33:14;-0.30;99.90
34873;DHT22;21084;51.098;14.506;2023-02-28T17:35:45;-0.30;99.90
34873;DHT22;21084;51.098;14.506;2023-02-28T17:38:16;-0.30;99.90
34873;DHT22;21084;51.098;14.506;2023-02-28T17:40:49;-0.40;99.90